sensor_id;sensor_type;location;lat;lon;timestamp;temperature;humidity
38500;DHT22;24269;51.894;4.622;2022-08-30T00:00:34;16.50;99.90
38500;DHT22;24269;51.894;4.622;2022-08-30T00:03:18;16.50;99.90
38500;DHT22;24269;51.894;4.622;2022-08-30T00:05:44;16.50;99.90
38500;DHT22;24269;51.894;4.622;2022-08-30T00:08:11;16.50;99.90
38500;DHT22;24269;51.894;4.622;2022-08-30T00:10:37;16.40;99.90
38500;DHT22;24269;51.894;4.622;2022-08-30T00:13:04;16.50;99.90
38500;DHT22;24269;51.894;4.622;2022-08-30T00:15:31;16.40;99.90
38500;DHT22;24269;51.894;4.622;2022-08-30T00:17:57;16.40;99.90
38500;DHT22;24269;51.894;4.622;2022-08-30T00:20:26;16.40;99.90
38500;DHT22;24269;51.894;4.622;2022-08-30T00:22:53;16.40;99.90
38500;DHT22;24269;51.894;4.622;2022-08-30T00:25:19;16.30;99.90
38500;DHT22;24269;51.894;4.622;2022-08-30T00:27:45;16.30;99.90
38500;DHT22;24269;51.894;4.622;2022-08-30T00:30:12;16.30;99.90
38500;DHT22;24269;51.894;4.622;2022-08-30T00:32:38;16.30;99.90
38500;DHT22;24269;51.894;4.622;2022-08-30T00:35:05;16.30;99.90
38500;DHT22;24269;51.894;4.622;2022-08-30T00:37:31;16.30;99.90
38500;DHT22;24269;51.894;4.622;2022-08-30T00:39:56;16.20;99.90
38500;DHT22;24269;51.894;4.622;2022-08-30T00:42:23;16.20;99.90
38500;DHT22;24269;51.894;4.622;2022-08-30T00:44:49;16.20;99.90
38500;DHT22;24269;51.894;4.622;2022-08-30T00:47:15;16.20;99.90
38500;DHT22;24269;51.894;4.622;2022-08-30T00:49:45;16.20;99.90
38500;DHT22;24269;51.894;4.622;2022-08-30T00:52:13;16.20;99.90
38500;DHT22;24269;51.894;4.622;2022-08-30T00:54:41;16.10;99.90
38500;DHT22;24269;51.894;4.622;2022-08-30T00:57:09;16.10;99.90
38500;DHT22;24269;51.894;4.622;2022-08-30T00:59:35;16.10;99.90
38500;DHT22;24269;51.894;4.622;2022-08-30T01:02:03;16.10;99.90
38500;DHT22;24269;51.894;4.622;2022-08-30T01:04:30;16.10;99.90
38500;DHT22;24269;51.894;4.622;2022-08-30T01:06:56;16.10;99.90
38500;DHT22;24269;51.894;4.622;2022-08-30T01:09:22;16.00;99.90
38500;DHT22;24269;51.894;4.622;2022-08-30T01:11:48;16.10;99.90
38500;DHT22;24269;51.894;4.622;2022-08-30T01:14:15;16.00;99.90
38500;DHT22;24269;51.894;4.622;2022-08-30T01:16:42;16.00;99.90
38500;DHT22;24269;51.894;4.622;2022-08-30T01:21:56;16.00;99.90
38500;DHT22;24269;51.894;4.622;2022-08-30T01:24:23;16.00;99.90
38500;DHT22;24269;51.894;4.622;2022-08-30T01:26:49;16.00;99.90
38500;DHT22;24269;51.894;4.622;2022-08-30T01:29:17;16.00;99.90
38500;DHT22;24269;51.894;4.622;2022-08-30T01:31:45;15.90;99.90
38500;DHT22;24269;51.894;4.622;2022-08-30T01:34:11;15.90;99.90
38500;DHT22;24269;51.894;4.622;2022-08-30T01:36:38;15.90;99.90
38500;DHT22;24269;51.894;4.622;2022-08-30T01:39:06;15.90;99.90
38500;DHT22;24269;51.894;4.622;2022-08-30T01:41:34;15.90;99.90
38500;DHT22;24269;51.894;4.622;2022-08-30T01:44:03;15.90;99.90
38500;DHT22;24269;51.894;4.622;2022-08-30T01:46:35;15.90;99.90
38500;DHT22;24269;51.894;4.622;2022-08-30T01:49:03;15.90;99.90
38500;DHT22;24269;51.894;4.622;2022-08-30T01:51:29;15.90;99.90
38500;DHT22;24269;51.894;4.622;2022-08-30T01:53:55;15.90;99.90
38500;DHT22;24269;51.894;4.622;2022-08-30T01:56:23;15.90;99.90
38500;DHT22;24269;51.894;4.622;2022-08-30T01:58:50;15.90;99.90
38500;DHT22;24269;51.894;4.622;2022-08-30T02:01:17;15.90;99.90
38500;DHT22;24269;51.894;4.622;2022-08-30T02:03:44;15.90;99.90
38500;DHT22;24269;51.894;4.622;2022-08-30T02:06:15;15.90;99.90
38500;DHT22;24269;51.894;4.622;2022-08-30T02:08:41;15.90;99.90
38500;DHT22;24269;51.894;4.622;2022-08-30T02:11:08;15.90;99.90
38500;DHT22;24269;51.894;4.622;2022-08-30T02:13:34;15.90;99.90
38500;DHT22;24269;51.894;4.622;2022-08-30T02:16:02;16.00;99.90
38500;DHT22;24269;51.894;4.622;2022-08-30T02:18:27;16.00;99.90
38500;DHT22;24269;51.894;4.622;2022-08-30T02:20:53;15.90;99.90
38500;DHT22;24269;51.894;4.622;2022-08-30T02:23:19;15.90;99.90
38500;DHT22;24269;51.894;4.622;2022-08-30T02:25:45;15.90;99.90
38500;DHT22;24269;51.894;4.622;2022-08-30T02:28:11;15.90;99.90
38500;DHT22;24269;51.894;4.622;2022-08-30T02:30:38;15.90;99.90
38500;DHT22;24269;51.894;4.622;2022-08-30T02:33:04;15.90;99.90
38500;DHT22;24269;51.894;4.622;2022-08-30T02:35:30;15.90;99.90
38500;DHT22;24269;51.894;4.622;2022-08-30T02:37:55;15.90;99.90
38500;DHT22;24269;51.894;4.622;2022-08-30T02:40:21;16.00;99.90
38500;DHT22;24269;51.894;4.622;2022-08-30T02:42:47;15.90;99.90
38500;DHT22;24269;51.894;4.622;2022-08-30T02:45:13;15.90;99.90
38500;DHT22;24269;51.894;4.622;2022-08-30T02:47:40;15.90;99.90
38500;DHT22;24269;51.894;4.622;2022-08-30T02:50:07;15.90;99.90
38500;DHT22;24269;51.894;4.622;2022-08-30T02:52:35;15.90;99.90
38500;DHT22;24269;51.894;4.622;2022-08-30T02:55:03;15.90;99.90
38500;DHT22;24269;51.894;4.622;2022-08-30T02:57:29;15.90;99.90
38500;DHT22;24269;51.894;4.622;2022-08-30T02:59:55;15.90;99.90
38500;DHT22;24269;51.894;4.622;2022-08-30T03:02:21;15.90;99.90
38500;DHT22;24269;51.894;4.622;2022-08-30T03:04:47;15.90;99.90
38500;DHT22;24269;51.894;4.622;2022-08-30T03:07:13;15.90;99.90
38500;DHT22;24269;51.894;4.622;2022-08-30T03:09:39;15.90;99.90
38500;DHT22;24269;51.894;4.622;2022-08-30T03:12:05;15.90;99.90
38500;DHT22;24269;51.894;4.622;2022-08-30T03:14:33;15.90;99.90
38500;DHT22;24269;51.894;4.622;2022-08-30T03:17:01;15.90;99.90
38500;DHT22;24269;51.894;4.622;2022-08-30T03:19:27;15.90;99.90
38500;DHT22;24269;51.894;4.622;2022-08-30T03:21:53;15.90;99.90
38500;DHT22;24269;51.894;4.622;2022-08-30T03:24:19;15.80;99.90
38500;DHT22;24269;51.894;4.622;2022-08-30T03:26:45;15.80;99.90
38500;DHT22;24269;51.894;4.622;2022-08-30T03:29:10;15.80;99.90
38500;DHT22;24269;51.894;4.622;2022-08-30T03:31:36;15.80;99.90
38500;DHT22;24269;51.894;4.622;2022-08-30T03:34:02;15.80;99.90
38500;DHT22;24269;51.894;4.622;2022-08-30T03:36:30;15.80;99.90
38500;DHT22;24269;51.894;4.622;2022-08-30T03:38:55;15.70;99.90
38500;DHT22;24269;51.894;4.622;2022-08-30T03:41:22;15.70;99.90
38500;DHT22;24269;51.894;4.622;2022-08-30T03:43:48;15.70;99.90
38500;DHT22;24269;51.894;4.622;2022-08-30T03:46:14;15.70;99.90
38500;DHT22;24269;51.894;4.622;2022-08-30T03:48:41;15.70;99.90
38500;DHT22;24269;51.894;4.622;2022-08-30T03:51:06;15.70;99.90
38500;DHT22;24269;51.894;4.622;2022-08-30T03:53:32;15.60;99.90
38500;DHT22;24269;51.894;4.622;2022-08-30T03:55:58;15.60;99.90
38500;DHT22;24269;51.894;4.622;2022-08-30T03:58:23;15.50;99.90
38500;DHT22;24269;51.894;4.622;2022-08-30T04:00:49;15.50;99.90
38500;DHT22;24269;51.894;4.622;2022-08-30T04:03:15;15.50;99.90
38500;DHT22;24269;51.894;4.622;2022-08-30T04:05:41;15.50;99.90
38500;DHT22;24269;51.894;4.622;2022-08-30T04:08:06;15.50;99.90
38500;DHT22;24269;51.894;4.622;2022-08-30T04:10:32;15.50;99.90
38500;DHT22;24269;51.894;4.622;2022-08-30T04:12:59;15.40;99.90
38500;DHT22;24269;51.894;4.622;2022-08-30T04:15:25;15.50;99.90
38500;DHT22;24269;51.894;4.622;2022-08-30T04:17:50;15.40;99.90
38500;DHT22;24269;51.894;4.622;2022-08-30T04:20:18;15.40;99.90
38500;DHT22;24269;51.894;4.622;2022-08-30T04:22:43;15.40;99.90
38500;DHT22;24269;51.894;4.622;2022-08-30T04:25:09;15.40;99.90
38500;DHT22;24269;51.894;4.622;2022-08-30T04:27:35;15.40;99.90
38500;DHT22;24269;51.894;4.622;2022-08-30T04:30:02;15.40;99.90
38500;DHT22;24269;51.894;4.622;2022-08-30T04:32:28;15.30;99.90
38500;DHT22;24269;51.894;4.622;2022-08-30T04:34:57;15.30;99.90
38500;DHT22;24269;51.894;4.622;2022-08-30T04:37:24;15.30;99.90
38500;DHT22;24269;51.894;4.622;2022-08-30T04:39:49;15.30;99.90
38500;DHT22;24269;51.894;4.622;2022-08-30T04:42:15;15.30;99.90
38500;DHT22;24269;51.894;4.622;2022-08-30T04:44:41;15.30;99.90
38500;DHT22;24269;51.894;4.622;2022-08-30T04:47:06;15.30;99.90
38500;DHT22;24269;51.894;4.622;2022-08-30T04:49:34;15.30;99.90
38500;DHT22;24269;51.894;4.622;2022-08-30T04:52:00;15.30;99.90
38500;DHT22;24269;51.894;4.622;2022-08-30T04:54:25;15.30;99.90
38500;DHT22;24269;51.894;4.622;2022-08-30T04:56:51;15.30;99.90
38500;DHT22;24269;51.894;4.622;2022-08-30T04:59:16;15.30;99.90
38500;DHT22;24269;51.894;4.622;2022-08-30T05:01:42;15.30;99.90
38500;DHT22;24269;51.894;4.622;2022-08-30T05:04:07;15.30;99.90
38500;DHT22;24269;51.894;4.622;2022-08-30T05:06:33;15.30;99.90
38500;DHT22;24269;51.894;4.622;2022-08-30T05:08:59;15.30;99.90
38500;DHT22;24269;51.894;4.622;2022-08-30T05:11:27;15.30;99.90
38500;DHT22;24269;51.894;4.622;2022-08-30T05:13:54;15.30;99.90
38500;DHT22;24269;51.894;4.622;2022-08-30T05:16:20;15.30;99.90
38500;DHT22;24269;51.894;4.622;2022-08-30T05:18:47;15.20;99.90
38500;DHT22;24269;51.894;4.622;2022-08-30T05:21:19;15.30;99.90
38500;DHT22;24269;51.894;4.622;2022-08-30T05:23:45;15.20;99.90
38500;DHT22;24269;51.894;4.622;2022-08-30T05:26:14;15.20;99.90
38500;DHT22;24269;51.894;4.622;2022-08-30T05:28:40;15.20;99.90
38500;DHT22;24269;51.894;4.622;2022-08-30T05:33:44;15.30;99.90
38500;DHT22;24269;51.894;4.622;2022-08-30T05:36:11;15.30;99.90
38500;DHT22;24269;51.894;4.622;2022-08-30T05:38:37;15.40;99.90
38500;DHT22;24269;51.894;4.622;2022-08-30T05:41:03;15.40;99.90
38500;DHT22;24269;51.894;4.622;2022-08-30T05:43:29;15.40;99.90
38500;DHT22;24269;51.894;4.622;2022-08-30T05:46:03;15.40;99.90
38500;DHT22;24269;51.894;4.622;2022-08-30T05:48:30;15.40;99.90
38500;DHT22;24269;51.894;4.622;2022-08-30T05:51:07;15.50;99.90
38500;DHT22;24269;51.894;4.622;2022-08-30T05:53:34;15.50;99.90
38500;DHT22;24269;51.894;4.622;2022-08-30T05:56:02;15.50;99.90
38500;DHT22;24269;51.894;4.622;2022-08-30T05:58:28;15.50;99.90
38500;DHT22;24269;51.894;4.622;2022-08-30T06:00:54;15.50;99.90
38500;DHT22;24269;51.894;4.622;2022-08-30T06:03:19;15.60;99.90
38500;DHT22;24269;51.894;4.622;2022-08-30T06:05:45;15.60;99.90
38500;DHT22;24269;51.894;4.622;2022-08-30T06:08:10;15.60;99.90
38500;DHT22;24269;51.894;4.622;2022-08-30T06:10:36;15.70;99.90
38500;DHT22;24269;51.894;4.622;2022-08-30T06:13:02;15.70;99.90
38500;DHT22;24269;51.894;4.622;2022-08-30T06:15:27;15.70;99.90
38500;DHT22;24269;51.894;4.622;2022-08-30T06:17:53;15.80;99.90
38500;DHT22;24269;51.894;4.622;2022-08-30T06:20:18;15.80;99.90
38500;DHT22;24269;51.894;4.622;2022-08-30T06:22:45;15.80;99.90
38500;DHT22;24269;51.894;4.622;2022-08-30T06:25:11;15.90;99.90
38500;DHT22;24269;51.894;4.622;2022-08-30T06:27:37;15.90;99.90
38500;DHT22;24269;51.894;4.622;2022-08-30T06:30:04;15.90;99.90
38500;DHT22;24269;51.894;4.622;2022-08-30T06:32:33;16.00;99.90
38500;DHT22;24269;51.894;4.622;2022-08-30T06:34:58;16.00;99.90
38500;DHT22;24269;51.894;4.622;2022-08-30T06:37:24;16.10;99.90
38500;DHT22;24269;51.894;4.622;2022-08-30T06:39:49;16.10;99.90
38500;DHT22;24269;51.894;4.622;2022-08-30T06:42:15;16.20;99.90
38500;DHT22;24269;51.894;4.622;2022-08-30T06:44:41;16.20;99.90
38500;DHT22;24269;51.894;4.622;2022-08-30T06:47:06;16.40;99.90
38500;DHT22;24269;51.894;4.622;2022-08-30T06:49:32;16.40;99.90
38500;DHT22;24269;51.894;4.622;2022-08-30T06:51:58;16.50;99.90
38500;DHT22;24269;51.894;4.622;2022-08-30T06:54:23;16.50;99.90
38500;DHT22;24269;51.894;4.622;2022-08-30T06:56:49;16.50;99.90
38500;DHT22;24269;51.894;4.622;2022-08-30T06:59:15;16.60;99.90
38500;DHT22;24269;51.894;4.622;2022-08-30T07:01:41;16.60;99.90
38500;DHT22;24269;51.894;4.622;2022-08-30T07:04:06;16.70;99.90
38500;DHT22;24269;51.894;4.622;2022-08-30T07:06:32;16.80;99.90
38500;DHT22;24269;51.894;4.622;2022-08-30T07:08:59;16.90;99.90
38500;DHT22;24269;51.894;4.622;2022-08-30T07:11:27;16.90;99.90
38500;DHT22;24269;51.894;4.622;2022-08-30T07:13:53;17.00;99.90
38500;DHT22;24269;51.894;4.622;2022-08-30T07:16:19;17.10;99.90
38500;DHT22;24269;51.894;4.622;2022-08-30T07:18:44;17.20;99.90
38500;DHT22;24269;51.894;4.622;2022-08-30T07:21:18;17.30;99.90
38500;DHT22;24269;51.894;4.622;2022-08-30T07:23:45;17.30;99.90
38500;DHT22;24269;51.894;4.622;2022-08-30T07:26:14;17.40;99.90
38500;DHT22;24269;51.894;4.622;2022-08-30T07:28:42;17.50;99.90
38500;DHT22;24269;51.894;4.622;2022-08-30T07:31:10;17.60;99.90
38500;DHT22;24269;51.894;4.622;2022-08-30T07:33:36;17.70;99.90
38500;DHT22;24269;51.894;4.622;2022-08-30T07:36:03;17.70;99.90
38500;DHT22;24269;51.894;4.622;2022-08-30T07:38:29;17.90;99.90
38500;DHT22;24269;51.894;4.622;2022-08-30T07:40:55;18.00;99.90
38500;DHT22;24269;51.894;4.622;2022-08-30T07:43:23;18.10;99.90
38500;DHT22;24269;51.894;4.622;2022-08-30T07:45:49;18.30;99.90
38500;DHT22;24269;51.894;4.622;2022-08-30T07:48:14;18.50;99.90
38500;DHT22;24269;51.894;4.622;2022-08-30T07:50:44;18.70;99.90
38500;DHT22;24269;51.894;4.622;2022-08-30T07:53:10;18.90;99.90
38500;DHT22;24269;51.894;4.622;2022-08-30T07:55:36;19.10;99.90
38500;DHT22;24269;51.894;4.622;2022-08-30T07:58:02;19.40;99.90
38500;DHT22;24269;51.894;4.622;2022-08-30T08:00:27;19.50;99.90
38500;DHT22;24269;51.894;4.622;2022-08-30T08:02:53;19.50;99.90
38500;DHT22;24269;51.894;4.622;2022-08-30T08:05:19;19.70;99.90
38500;DHT22;24269;51.894;4.622;2022-08-30T08:07:45;19.80;99.90
38500;DHT22;24269;51.894;4.622;2022-08-30T08:10:11;20.00;99.90
38500;DHT22;24269;51.894;4.622;2022-08-30T08:12:38;20.20;99.90
38500;DHT22;24269;51.894;4.622;2022-08-30T08:15:04;20.20;99.90
38500;DHT22;24269;51.894;4.622;2022-08-30T08:17:30;20.30;99.90
38500;DHT22;24269;51.894;4.622;2022-08-30T08:19:55;20.30;99.90
38500;DHT22;24269;51.894;4.622;2022-08-30T08:22:21;20.30;99.90
38500;DHT22;24269;51.894;4.622;2022-08-30T08:24:48;20.30;99.90
38500;DHT22;24269;51.894;4.622;2022-08-30T08:27:14;20.50;99.90
38500;DHT22;24269;51.894;4.622;2022-08-30T08:29:39;20.50;99.90
38500;DHT22;24269;51.894;4.622;2022-08-30T08:32:05;20.50;99.90
38500;DHT22;24269;51.894;4.622;2022-08-30T08:34:31;20.50;99.90
38500;DHT22;24269;51.894;4.622;2022-08-30T08:36:56;20.50;99.90
38500;DHT22;24269;51.894;4.622;2022-08-30T08:39:22;20.50;99.90
38500;DHT22;24269;51.894;4.622;2022-08-30T08:44:37;20.70;99.90
38500;DHT22;24269;51.894;4.622;2022-08-30T08:49:49;20.70;99.90
38500;DHT22;24269;51.894;4.622;2022-08-30T08:52:21;20.70;99.90
38500;DHT22;24269;51.894;4.622;2022-08-30T08:55:27;20.70;99.90
38500;DHT22;24269;51.894;4.622;2022-08-30T08:57:55;20.90;99.90
38500;DHT22;24269;51.894;4.622;2022-08-30T09:00:21;20.90;99.90
38500;DHT22;24269;51.894;4.622;2022-08-30T09:02:57;21.00;99.90
38500;DHT22;24269;51.894;4.622;2022-08-30T09:05:27;21.20;99.90
38500;DHT22;24269;51.894;4.622;2022-08-30T09:08:14;21.30;99.90
38500;DHT22;24269;51.894;4.622;2022-08-30T09:10:53;21.30;99.90
38500;DHT22;24269;51.894;4.622;2022-08-30T09:13:22;21.40;99.90
38500;DHT22;24269;51.894;4.622;2022-08-30T09:15:50;21.60;99.90
38500;DHT22;24269;51.894;4.622;2022-08-30T09:18:16;21.70;99.90
38500;DHT22;24269;51.894;4.622;2022-08-30T09:20:47;21.80;99.90
38500;DHT22;24269;51.894;4.622;2022-08-30T09:23:26;21.90;99.90
38500;DHT22;24269;51.894;4.622;2022-08-30T09:26:03;22.00;99.90
38500;DHT22;24269;51.894;4.622;2022-08-30T09:28:43;22.10;99.90
38500;DHT22;24269;51.894;4.622;2022-08-30T09:31:23;22.10;99.90
38500;DHT22;24269;51.894;4.622;2022-08-30T09:33:59;22.20;99.90
38500;DHT22;24269;51.894;4.622;2022-08-30T09:36:49;22.30;99.90
38500;DHT22;24269;51.894;4.622;2022-08-30T09:39:25;22.30;99.90
38500;DHT22;24269;51.894;4.622;2022-08-30T09:41:52;22.40;99.90
38500;DHT22;24269;51.894;4.622;2022-08-30T09:44:23;22.50;99.90
38500;DHT22;24269;51.894;4.622;2022-08-30T09:46:54;22.60;99.90
38500;DHT22;24269;51.894;4.622;2022-08-30T09:49:31;22.60;99.90
38500;DHT22;24269;51.894;4.622;2022-08-30T10:03:55;23.00;99.90
38500;DHT22;24269;51.894;4.622;2022-08-30T10:06:38;23.00;99.90
38500;DHT22;24269;51.894;4.622;2022-08-30T10:11:52;23.10;99.90
38500;DHT22;24269;51.894;4.622;2022-08-30T10:17:18;23.20;99.90
38500;DHT22;24269;51.894;4.622;2022-08-30T10:22:34;23.40;99.90
38500;DHT22;24269;51.894;4.622;2022-08-30T10:25:16;23.40;99.90
38500;DHT22;24269;51.894;4.622;2022-08-30T10:30:19;23.60;99.90
38500;DHT22;24269;51.894;4.622;2022-08-30T10:32:59;23.50;99.90
38500;DHT22;24269;51.894;4.622;2022-08-30T10:35:29;23.60;99.90
38500;DHT22;24269;51.894;4.622;2022-08-30T10:38:07;23.70;99.90
38500;DHT22;24269;51.894;4.622;2022-08-30T10:40:37;23.80;99.90
38500;DHT22;24269;51.894;4.622;2022-08-30T10:43:32;23.80;99.90
38500;DHT22;24269;51.894;4.622;2022-08-30T10:46:07;23.80;99.90
38500;DHT22;24269;51.894;4.622;2022-08-30T10:48:40;23.80;99.90
38500;DHT22;24269;51.894;4.622;2022-08-30T10:51:11;23.80;99.90
38500;DHT22;24269;51.894;4.622;2022-08-30T10:53:43;23.90;99.90
38500;DHT22;24269;51.894;4.622;2022-08-30T10:56:15;24.10;99.90
38500;DHT22;24269;51.894;4.622;2022-08-30T10:58:43;24.10;99.90
38500;DHT22;24269;51.894;4.622;2022-08-30T11:01:32;24.30;99.90
38500;DHT22;24269;51.894;4.622;2022-08-30T11:13:17;24.40;99.90
38500;DHT22;24269;51.894;4.622;2022-08-30T11:15:26;24.50;99.90
38500;DHT22;24269;51.894;4.622;2022-08-30T11:18:02;24.60;99.90
38500;DHT22;24269;51.894;4.622;2022-08-30T11:23:27;24.80;99.90
38500;DHT22;24269;51.894;4.622;2022-08-30T11:25:57;24.90;99.90
38500;DHT22;24269;51.894;4.622;2022-08-30T11:31:08;25.20;99.90
38500;DHT22;24269;51.894;4.622;2022-08-30T11:33:54;25.30;99.90
38500;DHT22;24269;51.894;4.622;2022-08-30T11:39:06;25.40;99.90
38500;DHT22;24269;51.894;4.622;2022-08-30T11:41:45;25.30;99.90
38500;DHT22;24269;51.894;4.622;2022-08-30T11:44:27;25.20;99.90
38500;DHT22;24269;51.894;4.622;2022-08-30T11:46:56;25.20;99.90
38500;DHT22;24269;51.894;4.622;2022-08-30T11:52:48;25.50;99.90
38500;DHT22;24269;51.894;4.622;2022-08-30T12:01:15;25.90;99.90
38500;DHT22;24269;51.894;4.622;2022-08-30T12:03:42;25.90;99.90
38500;DHT22;24269;51.894;4.622;2022-08-30T12:06:10;25.60;99.90
38500;DHT22;24269;51.894;4.622;2022-08-30T12:08:43;25.50;99.90
38500;DHT22;24269;51.894;4.622;2022-08-30T12:18:45;25.80;99.90
38500;DHT22;24269;51.894;4.622;2022-08-30T12:26:44;26.10;99.90
38500;DHT22;24269;51.894;4.622;2022-08-30T12:29:30;26.10;99.90
38500;DHT22;24269;51.894;4.622;2022-08-30T12:32:15;26.20;99.90
38500;DHT22;24269;51.894;4.622;2022-08-30T12:34:52;26.60;99.90
38500;DHT22;24269;51.894;4.622;2022-08-30T12:39:47;26.80;99.90
38500;DHT22;24269;51.894;4.622;2022-08-30T12:42:30;26.80;99.90
38500;DHT22;24269;51.894;4.622;2022-08-30T12:45:04;26.70;99.90
38500;DHT22;24269;51.894;4.622;2022-08-30T12:50:23;26.60;99.90
38500;DHT22;24269;51.894;4.622;2022-08-30T12:52:59;26.70;99.90
38500;DHT22;24269;51.894;4.622;2022-08-30T12:55:33;26.60;99.90
38500;DHT22;24269;51.894;4.622;2022-08-30T12:58:08;26.60;99.90
38500;DHT22;24269;51.894;4.622;2022-08-30T13:00:37;26.70;99.90
38500;DHT22;24269;51.894;4.622;2022-08-30T13:05:49;26.80;99.90
38500;DHT22;24269;51.894;4.622;2022-08-30T13:08:17;26.70;99.40
38500;DHT22;24269;51.894;4.622;2022-08-30T13:11:05;26.60;99.10
38500;DHT22;24269;51.894;4.622;2022-08-30T13:13:34;26.50;99.10
38500;DHT22;24269;51.894;4.622;2022-08-30T13:18:42;26.50;99.90
38500;DHT22;24269;51.894;4.622;2022-08-30T13:23:35;26.90;99.10
38500;DHT22;24269;51.894;4.622;2022-08-30T13:26:01;26.90;99.70
38500;DHT22;24269;51.894;4.622;2022-08-30T13:28:26;26.90;99.90
38500;DHT22;24269;51.894;4.622;2022-08-30T13:30:53;26.80;99.30
38500;DHT22;24269;51.894;4.622;2022-08-30T13:33:19;27.00;99.50
38500;DHT22;24269;51.894;4.622;2022-08-30T13:35:45;27.10;99.90
38500;DHT22;24269;51.894;4.622;2022-08-30T13:38:11;27.40;98.70
38500;DHT22;24269;51.894;4.622;2022-08-30T13:40:36;27.30;99.80
38500;DHT22;24269;51.894;4.622;2022-08-30T13:43:02;27.30;99.30
38500;DHT22;24269;51.894;4.622;2022-08-30T13:45:28;27.40;98.50
38500;DHT22;24269;51.894;4.622;2022-08-30T13:47:53;27.30;99.20
38500;DHT22;24269;51.894;4.622;2022-08-30T13:50:19;27.20;98.50
38500;DHT22;24269;51.894;4.622;2022-08-30T13:52:45;27.20;98.40
38500;DHT22;24269;51.894;4.622;2022-08-30T13:55:11;27.40;98.70
38500;DHT22;24269;51.894;4.622;2022-08-30T13:57:37;27.40;97.90
38500;DHT22;24269;51.894;4.622;2022-08-30T14:00:06;27.30;98.80
38500;DHT22;24269;51.894;4.622;2022-08-30T14:02:33;27.40;99.30
38500;DHT22;24269;51.894;4.622;2022-08-30T14:04:59;27.50;98.00
38500;DHT22;24269;51.894;4.622;2022-08-30T14:07:25;27.20;98.00
38500;DHT22;24269;51.894;4.622;2022-08-30T14:09:50;26.60;98.10
38500;DHT22;24269;51.894;4.622;2022-08-30T14:12:16;26.10;99.20
38500;DHT22;24269;51.894;4.622;2022-08-30T14:14:42;25.80;99.90
38500;DHT22;24269;51.894;4.622;2022-08-30T14:17:07;25.70;99.90
38500;DHT22;24269;51.894;4.622;2022-08-30T14:19:33;25.30;99.90
38500;DHT22;24269;51.894;4.622;2022-08-30T14:21:58;25.10;99.90
38500;DHT22;24269;51.894;4.622;2022-08-30T14:24:24;25.10;99.90
38500;DHT22;24269;51.894;4.622;2022-08-30T14:26:50;25.20;99.90
38500;DHT22;24269;51.894;4.622;2022-08-30T14:29:20;25.30;99.90
38500;DHT22;24269;51.894;4.622;2022-08-30T14:31:46;25.30;99.90
38500;DHT22;24269;51.894;4.622;2022-08-30T14:34:16;25.30;99.90
38500;DHT22;24269;51.894;4.622;2022-08-30T14:36:43;25.10;99.90
38500;DHT22;24269;51.894;4.622;2022-08-30T14:39:11;25.10;99.90
38500;DHT22;24269;51.894;4.622;2022-08-30T14:41:45;25.10;99.90
38500;DHT22;24269;51.894;4.622;2022-08-30T14:44:13;24.90;99.90
38500;DHT22;24269;51.894;4.622;2022-08-30T14:46:40;24.70;99.90
38500;DHT22;24269;51.894;4.622;2022-08-30T14:49:05;24.60;99.90
38500;DHT22;24269;51.894;4.622;2022-08-30T14:51:31;24.60;99.90
38500;DHT22;24269;51.894;4.622;2022-08-30T14:53:56;24.60;99.90
38500;DHT22;24269;51.894;4.622;2022-08-30T14:56:22;24.40;99.90
38500;DHT22;24269;51.894;4.622;2022-08-30T14:58:50;24.40;99.90
38500;DHT22;24269;51.894;4.622;2022-08-30T15:01:16;24.80;99.90
38500;DHT22;24269;51.894;4.622;2022-08-30T15:03:42;24.90;99.90
38500;DHT22;24269;51.894;4.622;2022-08-30T15:06:08;24.90;99.90
38500;DHT22;24269;51.894;4.622;2022-08-30T15:08:35;24.90;99.90
38500;DHT22;24269;51.894;4.622;2022-08-30T15:11:09;25.00;99.90
38500;DHT22;24269;51.894;4.622;2022-08-30T15:13:35;25.20;99.90
38500;DHT22;24269;51.894;4.622;2022-08-30T15:16:01;25.20;99.90
38500;DHT22;24269;51.894;4.622;2022-08-30T15:18:27;25.10;99.90
38500;DHT22;24269;51.894;4.622;2022-08-30T15:20:52;25.10;99.90
38500;DHT22;24269;51.894;4.622;2022-08-30T15:23:18;25.30;99.90
38500;DHT22;24269;51.894;4.622;2022-08-30T15:25:43;25.40;99.90
38500;DHT22;24269;51.894;4.622;2022-08-30T15:28:09;25.30;99.90
38500;DHT22;24269;51.894;4.622;2022-08-30T15:30:35;25.20;99.90
38500;DHT22;24269;51.894;4.622;2022-08-30T15:33:01;25.10;99.90
38500;DHT22;24269;51.894;4.622;2022-08-30T15:35:27;24.60;99.90
38500;DHT22;24269;51.894;4.622;2022-08-30T15:37:53;24.30;99.90
38500;DHT22;24269;51.894;4.622;2022-08-30T15:40:18;24.20;99.90
38500;DHT22;24269;51.894;4.622;2022-08-30T15:42:44;23.90;99.90
38500;DHT22;24269;51.894;4.622;2022-08-30T15:45:10;23.80;99.90
38500;DHT22;24269;51.894;4.622;2022-08-30T15:47:36;23.70;99.90
38500;DHT22;24269;51.894;4.622;2022-08-30T15:50:04;23.50;99.90
38500;DHT22;24269;51.894;4.622;2022-08-30T15:52:30;23.40;99.90
38500;DHT22;24269;51.894;4.622;2022-08-30T15:54:56;23.30;99.90
38500;DHT22;24269;51.894;4.622;2022-08-30T15:57:22;23.20;99.90
38500;DHT22;24269;51.894;4.622;2022-08-30T15:59:48;23.20;99.90
38500;DHT22;24269;51.894;4.622;2022-08-30T16:02:14;23.10;99.90
38500;DHT22;24269;51.894;4.622;2022-08-30T16:04:40;23.10;99.90
38500;DHT22;24269;51.894;4.622;2022-08-30T16:07:06;23.10;99.90
38500;DHT22;24269;51.894;4.622;2022-08-30T16:09:33;23.00;99.90
38500;DHT22;24269;51.894;4.622;2022-08-30T16:12:00;22.90;99.90
38500;DHT22;24269;51.894;4.622;2022-08-30T16:14:26;22.90;99.90
38500;DHT22;24269;51.894;4.622;2022-08-30T16:16:52;22.90;99.90
38500;DHT22;24269;51.894;4.622;2022-08-30T16:19:18;22.90;99.90
38500;DHT22;24269;51.894;4.622;2022-08-30T16:21:44;22.90;99.90
38500;DHT22;24269;51.894;4.622;2022-08-30T16:24:12;23.00;99.90
38500;DHT22;24269;51.894;4.622;2022-08-30T16:26:38;23.00;99.90
38500;DHT22;24269;51.894;4.622;2022-08-30T16:29:06;22.90;99.90
38500;DHT22;24269;51.894;4.622;2022-08-30T16:31:32;22.90;99.90
38500;DHT22;24269;51.894;4.622;2022-08-30T16:33:58;22.70;99.90
38500;DHT22;24269;51.894;4.622;2022-08-30T16:36:25;22.70;99.90
38500;DHT22;24269;51.894;4.622;2022-08-30T16:38:51;22.50;99.90
38500;DHT22;24269;51.894;4.622;2022-08-30T16:41:18;22.40;99.90
38500;DHT22;24269;51.894;4.622;2022-08-30T16:43:44;22.30;99.90
38500;DHT22;24269;51.894;4.622;2022-08-30T16:46:12;22.20;99.90
38500;DHT22;24269;51.894;4.622;2022-08-30T16:48:39;22.20;99.90
38500;DHT22;24269;51.894;4.622;2022-08-30T16:51:14;22.10;99.90
38500;DHT22;24269;51.894;4.622;2022-08-30T16:53:40;22.00;99.90
38500;DHT22;24269;51.894;4.622;2022-08-30T16:56:09;21.90;99.90
38500;DHT22;24269;51.894;4.622;2022-08-30T16:58:35;21.90;99.90
38500;DHT22;24269;51.894;4.622;2022-08-30T17:01:02;21.80;99.90